Time;durP1;ratioP1;P1;durP2;ratioP2;P2;SDS_P1;SDS_P2;PMS_P1;PMS_P2;Temp;Humidity;BMP_temperature;BMP_pressure;BME280_temperature;BME280_humidity;BME280_pressure;Samples;Min_cycle;Max_cycle;Signal;HPM_P1;HPM_P2
2022/05/28 00:01:05;;;;;;;6.97;1.50;;;;;;;7.79;94.73;100974.84;5096978;28;20545;-79
2022/05/28 00:03:31;;;;;;;5.05;1.33;;;;;;;7.79;95.27;100974.84;5080390;28;20023;-79
2022/05/28 00:05:57;;;;;;;4.88;1.60;;;;;;;7.84;94.70;100967.91;5080167;28;20077;-79
2022/05/28 00:08:24;;;;;;;5.35;1.40;;;;;;;7.82;94.26;100956.63;5097493;28;20431;-80
2022/05/28 00:10:50;;;;;;;7.82;1.30;;;;;;;7.76;95.71;100969.66;5080030;28;20020;-80
2022/05/28 00:13:16;;;;;;;10.23;1.48;;;;;;;7.78;95.85;100961.00;5079957;28;20050;-80
2022/05/28 00:15:41;;;;;;;7.43;1.70;;;;;;;7.82;95.81;100968.78;5096804;28;20034;-79
2022/05/28 00:18:10;;;;;;;13.02;1.65;;;;;;;7.82;95.18;100969.63;5079845;28;20585;-80
2022/05/28 00:20:36;;;;;;;4.65;1.05;;;;;;;7.81;95.06;100975.69;5077874;28;20034;-79
2022/05/28 00:23:02;;;;;;;8.48;1.23;;;;;;;7.83;95.67;100970.53;5080037;28;20028;-79
2022/05/28 00:25:28;;;;;;;3.60;1.00;;;;;;;7.79;95.61;100972.25;5080581;28;20242;-80
2022/05/28 00:27:56;;;;;;;7.90;1.40;;;;;;;7.78;95.89;100965.31;5082633;28;20024;-80
2022/05/28 00:30:22;;;;;;;6.70;1.33;;;;;;;7.77;95.81;100963.56;5079988;28;20039;-80
2022/05/28 00:32:47;;;;;;;9.40;1.15;;;;;;;7.81;95.69;100954.88;5080095;28;20096;-80
2022/05/28 00:35:16;;;;;;;6.97;1.20;;;;;;;7.77;96.21;100955.75;5081214;28;20023;-80
2022/05/28 00:37:43;;;;;;;7.95;1.50;;;;;;;7.77;96.09;100958.34;5081097;28;20023;-80
2022/05/28 00:40:14;;;;;;;9.23;1.00;;;;;;;7.79;96.42;100954.03;5080379;28;20076;-80
2022/05/28 00:42:40;;;;;;;5.13;1.20;;;;;;;7.79;95.92;100956.63;5079726;28;20185;-80
2022/05/28 00:45:06;;;;;;;4.95;1.15;;;;;;;7.77;95.88;100947.97;5096596;28;20063;-80
2022/05/28 00:47:31;;;;;;;5.55;1.38;;;;;;;7.76;95.13;100948.84;5079728;28;20027;-80
2022/05/28 00:49:57;;;;;;;4.90;1.70;;;;;;;7.75;94.92;100941.91;5096119;28;20084;-80
2022/05/28 00:52:24;;;;;;;6.97;1.35;;;;;;;7.71;94.59;100937.56;5079451;28;20023;-80
2022/05/28 00:54:50;;;;;;;13.90;2.25;;;;;;;7.71;94.07;100937.56;5079772;28;20485;-80
2022/05/28 00:57:16;;;;;;;7.07;1.08;;;;;;;7.69;93.68;100940.19;5079699;28;20020;-80
2022/05/28 00:59:43;;;;;;;13.10;1.30;;;;;;;7.69;93.75;100949.69;5096071;28;20043;-80
2022/05/28 01:02:21;;;;;;;6.15;1.60;;;;;;;7.70;94.65;100951.44;5080524;28;20023;-80
2022/05/28 01:05:11;;;;;;;7.32;1.48;;;;;;;7.66;93.71;100952.31;5080197;28;20484;-80
2022/05/28 01:08:12;;;;;;;5.88;1.30;;;;;;;7.66;93.51;100955.75;5096629;28;20038;-80
2022/05/28 01:10:53;;;;;;;4.20;1.20;;;;;;;7.67;93.56;100965.31;5081782;28;20153;-80
2022/05/28 01:13:38;;;;;;;8.18;2.00;;;;;;;7.71;92.91;100968.78;5114722;28;20130;-80
2022/05/28 01:16:15;;;;;;;8.20;1.02;;;;;;;7.72;94.21;100965.31;5079351;28;20028;-80
2022/05/28 01:18:49;;;;;;;4.50;1.33;;;;;;;7.76;95.03;100987.84;5079118;28;20420;-80
2022/05/28 01:21:38;;;;;;;5.32;1.15;;;;;;;7.79;96.20;100974.84;5079508;28;20389;-80
2022/05/28 01:24:06;;;;;;;4.18;0.98;;;;;;;7.75;95.86;100976.56;5085377;28;20442;-80
2022/05/28 01:26:57;;;;;;;5.00;0.98;;;;;;;7.74;97.16;100971.38;5095586;28;20110;-80
2022/05/28 01:29:26;;;;;;;5.28;1.08;;;;;;;7.76;97.07;100977.44;5079014;28;20023;-80
2022/05/28 01:31:54;;;;;;;3.28;0.80;;;;;;;7.73;97.45;100972.22;5078422;28;20435;-80
2022/05/28 01:34:20;;;;;;;2.45;0.85;;;;;;;7.74;97.80;100961.84;5078788;28;20114;-80
2022/05/28 01:36:48;;;;;;;0.77;0.43;;;;;;;7.71;96.87;100953.19;5078612;28;20059;-80
2022/05/28 01:39:14;;;;;;;3.15;0.60;;;;;;;7.69;98.19;100950.59;5079703;28;20028;-80
2022/05/28 01:41:40;;;;;;;3.53;0.70;;;;;;;7.72;97.98;100941.91;5078272;28;20180;-81
2022/05/28 01:44:10;;;;;;;1.08;0.60;;;;;;;7.67;98.41;100959.25;5079235;28;20172;-80
2022/05/28 01:46:38;;;;;;;4.43;0.70;;;;;;;7.65;97.63;100968.75;5079682;28;20031;-80
2022/05/28 01:49:03;;;;;;;2.40;0.57;;;;;;;7.66;98.68;100967.91;5079077;28;20023;-80
2022/05/28 01:51:58;;;;;;;1.35;0.55;;;;;;;7.65;97.98;100958.38;5078432;28;20023;-81
2022/05/28 01:54:28;;;;;;;3.13;0.83;;;;;;;7.59;98.39;100949.72;5078495;28;20034;-80
2022/05/28 01:56:54;;;;;;;2.60;0.68;;;;;;;7.56;98.15;100949.69;5078780;28;20352;-80
2022/05/28 01:59:29;;;;;;;3.20;0.68;;;;;;;7.53;97.92;100939.31;5079031;28;20031;-80
2022/05/28 02:01:56;;;;;;;1.23;0.50;;;;;;;7.51;97.70;100946.25;5078889;28;20034;-80
2022/05/28 02:04:22;;;;;;;1.40;0.75;;;;;;;7.46;97.45;100934.97;5095393;28;20388;-81
2022/05/28 02:06:47;;;;;;;1.65;0.60;;;;;;;7.43;96.99;100908.97;5078320;28;20030;-80
2022/05/28 02:09:18;;;;;;;1.75;0.60;;;;;;;7.39;96.39;100920.22;5078530;28;20024;-80
2022/05/28 02:11:49;;;;;;;2.72;0.73;;;;;;;7.35;96.88;100910.69;5095849;28;20035;-81
2022/05/28 02:14:16;;;;;;;2.40;0.90;;;;;;;7.40;97.10;100922.84;5078505;28;20444;-80
2022/05/28 02:16:59;;;;;;;5.40;0.75;;;;;;;7.37;96.66;100911.56;5096104;28;20035;-80
2022/05/28 02:19:39;;;;;;;0.88;0.40;;;;;;;7.35;97.35;100918.50;5078564;28;20081;-80
2022/05/28 02:22:17;;;;;;;1.90;0.57;;;;;;;7.36;97.45;100921.13;5095650;28;20030;-80
2022/05/28 02:24:50;;;;;;;4.55;0.80;;;;;;;7.38;97.42;100913.31;5095509;28;20024;-80
2022/05/28 02:27:17;;;;;;;1.02;0.60;;;;;;;7.42;98.22;100926.31;5078419;28;20032;-80
2022/05/28 02:29:43;;;;;;;2.13;0.60;;;;;;;7.38;97.49;100934.97;5078355;28;20019;-80
2022/05/28 02:32:15;;;;;;;1.40;0.80;;;;;;;7.36;97.87;100944.50;5094989;28;20492;-80
2022/05/28 02:34:41;;;;;;;1.65;0.52;;;;;;;7.37;98.06;100953.16;5095811;28;20028;-80
2022/05/28 02:37:07;;;;;;;4.95;0.55;;;;;;;7.38;97.84;100940.16;5079448;28;20087;-80
2022/05/28 02:39:32;;;;;;;1.67;0.80;;;;;;;7.37;98.32;100922.81;5082133;28;20069;-80
2022/05/28 02:41:57;;;;;;;3.35;0.80;;;;;;;7.39;97.96;100912.44;5080121;28;20030;-80
2022/05/28 02:44:23;;;;;;;1.85;0.70;;;;;;;7.35;98.03;100902.91;5081529;28;20087;-80
2022/05/28 02:46:49;;;;;;;2.33;0.60;;;;;;;7.39;97.62;100904.63;5081653;28;20024;-80
2022/05/28 02:49:14;;;;;;;2.88;0.90;;;;;;;7.38;97.58;100913.31;5081500;28;20110;-80
2022/05/28 02:51:40;;;;;;;6.03;0.82;;;;;;;7.36;97.10;100913.31;5098278;28;20072;-80
2022/05/28 02:54:05;;;;;;;5.65;0.73;;;;;;;7.37;97.64;100920.22;5098592;28;20030;-80
2022/05/28 02:56:30;;;;;;;1.58;0.63;;;;;;;7.34;96.69;100916.78;5081721;28;20051;-80
2022/05/28 02:58:56;;;;;;;5.25;0.70;;;;;;;7.31;97.51;100911.56;5098105;28;20117;-80
2022/05/28 03:01:34;;;;;;;3.08;0.88;;;;;;;7.30;98.19;100917.66;5080979;28;20108;-80
2022/05/28 03:04:00;;;;;;;2.33;0.90;;;;;;;7.28;98.34;100915.91;5081991;28;20023;-79
2022/05/28 03:06:26;;;;;;;1.83;0.93;;;;;;;7.32;98.88;100913.31;5081353;28;20034;-80
2022/05/28 03:08:52;;;;;;;2.55;0.95;;;;;;;7.37;98.62;100917.63;5098721;28;20034;-79
2022/05/28 03:11:17;;;;;;;2.00;0.75;;;;;;;7.35;98.13;100915.88;5080680;28;20032;-80
2022/05/28 03:13:43;;;;;;;3.78;0.68;;;;;;;7.32;98.34;100918.50;5080947;28;20366;-80
2022/05/28 03:16:08;;;;;;;5.30;1.20;;;;;;;7.31;98.81;100911.56;5080748;28;20015;-81
2022/05/28 03:18:34;;;;;;;2.65;0.80;;;;;;;7.36;98.38;100915.03;5081141;28;20031;-80
2022/05/28 03:21:00;;;;;;;3.15;1.00;;;;;;;7.37;98.91;100912.44;5080659;28;20106;-80
2022/05/28 03:23:25;;;;;;;3.92;0.90;;;;;;;7.36;98.72;100904.63;5080992;28;20458;-80
2022/05/28 03:25:50;;;;;;;2.45;0.90;;;;;;;7.35;97.79;100902.91;5080809;28;20024;-80
2022/05/28 03:28:16;;;;;;;5.55;1.20;;;;;;;7.36;97.67;100904.63;5080774;28;20040;-80
2022/05/28 03:30:42;;;;;;;4.85;0.98;;;;;;;7.34;97.79;100909.84;5080544;28;20073;-80
2022/05/28 03:33:07;;;;;;;4.28;0.98;;;;;;;7.28;97.83;100913.31;5080390;28;20477;-80
2022/05/28 03:35:33;;;;;;;4.47;0.90;;;;;;;7.25;97.70;100918.50;5080331;28;20038;-80
2022/05/28 03:37:59;;;;;;;3.22;0.90;;;;;;;7.28;97.50;100926.31;5080604;28;20132;-80
2022/05/28 03:40:24;;;;;;;3.72;1.17;;;;;;;7.26;98.47;100924.56;5080622;28;20051;-80
2022/05/28 03:42:50;;;;;;;9.88;1.77;;;;;;;7.26;98.21;100938.41;5080463;28;20020;-80
2022/05/28 03:45:15;;;;;;;5.85;1.42;;;;;;;7.27;98.95;100940.16;5080241;28;20030;-80
2022/05/28 03:47:40;;;;;;;3.50;0.70;;;;;;;7.28;98.90;100928.91;5079955;28;20027;-80
2022/05/28 03:50:07;;;;;;;4.93;1.17;;;;;;;7.30;98.88;100923.69;5079962;28;20027;-80
2022/05/28 03:52:33;;;;;;;7.32;1.30;;;;;;;7.30;99.10;100941.88;5080283;28;20028;-80
2022/05/28 03:54:58;;;;;;;6.10;1.30;;;;;;;7.33;99.35;100933.22;5080649;28;20206;-81
2022/05/28 03:57:29;;;;;;;11.25;1.55;;;;;;;7.38;99.21;100940.16;5080146;28;20020;-80
2022/05/28 03:59:56;;;;;;;10.73;1.38;;;;;;;7.41;99.61;100934.09;5080001;28;20023;-80
2022/05/28 04:02:21;;;;;;;6.53;1.38;;;;;;;7.44;100.00;100929.78;5079982;28;20031;-80
2022/05/28 04:04:47;;;;;;;5.45;1.33;;;;;;;7.49;99.81;100942.78;5080587;28;20408;-80
2022/05/28 04:07:13;;;;;;;5.22;1.20;;;;;;;7.48;99.11;100941.03;5079806;28;20019;-80
2022/05/28 04:09:39;;;;;;;5.00;1.13;;;;;;;7.50;98.84;100941.03;5080222;28;20050;-80
2022/05/28 04:12:05;;;;;;;11.40;2.00;;;;;;;7.51;99.57;100943.66;5098624;28;20429;-80
2022/05/28 04:14:30;;;;;;;3.40;1.17;;;;;;;7.52;98.94;100947.97;5080668;28;20118;-80
2022/05/28 04:16:55;;;;;;;5.63;1.40;;;;;;;7.50;98.78;100939.31;5079655;28;20034;-80
2022/05/28 04:19:21;;;;;;;13.82;1.73;;;;;;;7.51;99.06;100943.66;5079578;28;20137;-80
2022/05/28 04:21:47;;;;;;;4.70;1.63;;;;;;;7.53;98.80;100967.03;5096162;28;20111;-80
2022/05/28 04:24:12;;;;;;;9.20;1.65;;;;;;;7.54;98.08;100951.44;5079776;28;20059;-80
2022/05/28 04:26:38;;;;;;;4.82;1.30;;;;;;;7.53;98.31;100952.31;5079778;28;20397;-80
2022/05/28 04:29:03;;;;;;;6.00;1.13;;;;;;;7.55;98.57;100937.59;5079655;28;20114;-80
2022/05/28 04:31:29;;;;;;;3.35;1.20;;;;;;;7.55;98.38;100937.59;5096912;28;20027;-80
2022/05/28 04:33:54;;;;;;;4.68;1.40;;;;;;;7.53;99.34;100939.31;5079657;28;20480;-80
2022/05/28 04:36:20;;;;;;;2.03;1.08;;;;;;;7.56;99.51;100939.31;5079295;28;20031;-80
2022/05/28 04:38:45;;;;;;;6.30;1.13;;;;;;;7.63;99.99;100949.72;5079827;28;20075;-80
2022/05/28 04:41:11;;;;;;;9.75;1.45;;;;;;;7.65;100.00;100948.84;5079259;28;20016;-80
2022/05/28 04:43:36;;;;;;;3.67;1.08;;;;;;;7.65;99.74;100943.66;5097095;28;20026;-81
2022/05/28 04:46:01;;;;;;;3.55;1.33;;;;;;;7.67;100.00;100954.91;5096578;28;20449;-80
2022/05/28 04:48:27;;;;;;;5.07;1.27;;;;;;;7.68;100.00;100943.63;5079487;28;20023;-80
2022/05/28 04:50:53;;;;;;;5.40;1.10;;;;;;;7.72;100.00;100934.13;5079200;28;20024;-81
2022/05/28 04:53:18;;;;;;;4.05;1.55;;;;;;;7.78;99.84;100941.91;5079530;28;20023;-80
2022/05/28 04:55:45;;;;;;;7.45;1.58;;;;;;;7.82;100.00;100942.78;5096672;28;20028;-80
2022/05/28 04:58:12;;;;;;;6.45;1.30;;;;;;;7.87;100.00;100939.28;5079365;28;20032;-81
2022/05/28 05:00:38;;;;;;;10.65;2.13;;;;;;;7.93;99.98;100938.41;5078560;28;20025;-80
2022/05/28 05:03:03;;;;;;;8.93;1.88;;;;;;;7.99;99.95;100932.31;5097004;28;20016;-80
2022/05/28 05:05:29;;;;;;;10.43;1.80;;;;;;;8.06;100.00;100934.06;5078957;28;20473;-81
2022/05/28 05:07:54;;;;;;;5.80;1.63;;;;;;;8.07;100.00;100936.66;5078885;28;20023;-80
2022/05/28 05:10:20;;;;;;;8.73;1.67;;;;;;;8.11;100.00;100947.91;5078873;28;20035;-80
2022/05/28 05:12:45;;;;;;;3.08;1.52;;;;;;;8.15;99.99;100949.63;5079199;28;20114;-80
2022/05/28 05:15:12;;;;;;;9.55;2.00;;;;;;;8.16;100.00;100945.31;5079726;28;20065;-80
2022/05/28 05:17:37;;;;;;;6.57;1.58;;;;;;;8.17;100.00;100958.31;5079146;28;20180;-80
2022/05/28 05:20:03;;;;;;;9.90;1.75;;;;;;;8.16;100.00;100961.78;5096571;28;20051;-80
2022/05/28 05:22:28;;;;;;;18.90;3.60;;;;;;;8.19;100.00;100953.97;5079511;28;20020;-80
2022/05/28 05:24:54;;;;;;;7.43;1.67;;;;;;;8.19;100.00;100958.31;5079151;28;20055;-80
2022/05/28 05:27:19;;;;;;;7.32;1.88;;;;;;;8.19;100.00;100966.97;5078937;28;20507;-81
2022/05/28 05:29:44;;;;;;;8.25;2.20;;;;;;;8.16;100.00;100972.19;5095820;28;20522;-80
2022/05/28 05:32:10;;;;;;;13.18;2.22;;;;;;;8.22;100.00;100972.19;5078944;28;20019;-80
2022/05/28 05:34:37;;;;;;;13.75;2.58;;;;;;;8.27;100.00;100970.44;5078884;28;20537;-80
2022/05/28 05:37:03;;;;;;;12.75;2.65;;;;;;;8.31;100.00;100965.25;5079323;28;20097;-80
2022/05/28 05:39:28;;;;;;;17.27;2.58;;;;;;;8.35;100.00;100969.56;5078886;28;20024;-80
2022/05/28 05:41:53;;;;;;;13.85;2.20;;;;;;;8.41;100.00;100982.56;5078530;28;20019;-80
2022/05/28 05:44:19;;;;;;;15.15;2.50;;;;;;;8.44;100.00;100977.34;5078258;28;20023;-80
2022/05/28 05:46:44;;;;;;;18.63;2.40;;;;;;;8.48;100.00;100973.91;5078221;28;20024;-80
2022/05/28 05:49:10;;;;;;;10.73;2.30;;;;;;;8.47;100.00;100977.38;5078933;28;20116;-80
2022/05/28 05:51:40;;;;;;;14.20;2.25;;;;;;;8.48;100.00;100968.69;5095357;28;20160;-79
2022/05/28 05:54:06;;;;;;;9.77;2.58;;;;;;;8.52;100.00;100980.84;5078695;28;20019;-79
2022/05/28 05:56:31;;;;;;;13.48;2.20;;;;;;;8.57;100.00;100986.88;5078598;28;20034;-79
2022/05/28 05:58:57;;;;;;;9.13;2.15;;;;;;;8.58;100.00;100985.16;5114947;22;20039;-84
2022/05/28 06:01:23;;;;;;;10.07;2.25;;;;;;;8.61;100.00;100991.19;5097784;28;20030;-84
2022/05/28 06:03:49;;;;;;;7.57;2.35;;;;;;;8.62;100.00;100992.94;5098115;28;20047;-84
2022/05/28 06:06:15;;;;;;;14.75;2.83;;;;;;;8.68;99.97;100996.41;5097582;28;20472;-84
2022/05/28 06:08:40;;;;;;;11.75;2.70;;;;;;;8.73;100.00;100999.84;5098029;28;20057;-83
2022/05/28 06:11:06;;;;;;;7.70;2.05;;;;;;;8.72;100.00;100987.69;5098745;27;20102;-83
2022/05/28 06:13:31;;;;;;;13.82;2.47;;;;;;;8.69;100.00;100998.13;5101731;27;20027;-83
2022/05/28 06:15:57;;;;;;;10.70;2.20;;;;;;;8.70;100.00;100994.63;5101758;27;20037;-83
2022/05/28 06:18:22;;;;;;;6.82;1.52;;;;;;;8.73;100.00;100989.44;5101910;27;20019;-83
2022/05/28 06:20:49;;;;;;;8.88;2.10;;;;;;;8.78;100.00;100992.88;5119177;27;20379;-83
2022/05/28 06:23:16;;;;;;;11.13;1.88;;;;;;;8.85;100.00;100994.59;5101379;27;20015;-84
2022/05/28 06:25:41;;;;;;;5.60;1.90;;;;;;;8.92;100.00;100988.47;5101803;27;20033;-83
2022/05/28 06:28:06;;;;;;;8.50;2.17;;;;;;;8.92;100.00;100998.91;5101201;27;20023;-84
2022/05/28 06:30:32;;;;;;;9.57;3.00;;;;;;;8.96;100.00;100992.81;5118515;27;20104;-84
2022/05/28 06:32:57;;;;;;;11.70;2.40;;;;;;;9.00;100.00;100998.00;5101500;27;20031;-84
2022/05/28 06:35:23;;;;;;;4.93;1.70;;;;;;;9.03;99.35;101005.81;5101599;27;20027;-84
2022/05/28 06:37:49;;;;;;;9.98;2.03;;;;;;;9.01;99.52;100997.97;5101240;27;20026;-84
2022/05/28 06:40:15;;;;;;;5.50;1.70;;;;;;;9.01;99.76;100990.16;5101335;27;20027;-84
2022/05/28 06:42:40;;;;;;;13.82;2.20;;;;;;;8.98;99.04;101000.59;5118432;27;20030;-84
2022/05/28 06:45:06;;;;;;;6.82;1.67;;;;;;;8.94;99.49;100999.78;5101198;27;20055;-84
2022/05/28 06:47:32;;;;;;;6.43;1.42;;;;;;;8.90;99.10;101005.00;5101081;27;20080;-84
2022/05/28 06:52:41;;;;;;;7.97;2.10;;;;;;;8.86;99.53;100982.44;5120710;27;20552;-84
2022/05/28 06:55:07;;;;;;;3.72;1.77;;;;;;;8.88;99.48;100981.56;5100894;27;20050;-83
2022/05/28 06:57:32;;;;;;;10.15;1.95;;;;;;;8.92;100.00;100985.03;5101111;27;20468;-84
2022/05/28 06:59:58;;;;;;;8.95;1.80;;;;;;;8.95;100.00;100979.78;5100939;27;20391;-84
2022/05/28 07:02:23;;;;;;;11.55;3.22;;;;;;;8.98;100.00;100981.50;5117874;27;20111;-83
2022/05/28 07:04:49;;;;;;;6.30;1.92;;;;;;;8.94;100.00;100989.34;5100773;27;20117;-83
2022/05/28 07:07:15;;;;;;;9.52;1.98;;;;;;;8.95;99.67;100990.22;5100618;27;20027;-84
2022/05/28 07:09:40;;;;;;;9.85;2.17;;;;;;;8.95;99.94;100983.25;5117832;27;20056;-83
2022/05/28 07:12:06;;;;;;;8.35;1.98;;;;;;;8.96;100.00;100982.38;5100716;27;20027;-83
2022/05/28 07:14:31;;;;;;;15.63;2.55;;;;;;;9.00;100.00;100983.25;5100267;27;20023;-83
2022/05/28 07:16:57;;;;;;;8.07;1.92;;;;;;;9.01;99.97;100978.88;5117708;27;20019;-85
2022/05/28 07:19:22;;;;;;;8.68;2.20;;;;;;;9.05;100.00;100980.59;5099964;27;20601;-83
2022/05/28 07:21:47;;;;;;;10.05;2.72;;;;;;;9.13;99.66;100973.59;5116970;27;20015;-84
2022/05/28 07:24:13;;;;;;;11.23;2.45;;;;;;;9.20;98.67;100988.31;5099368;27;20380;-86
2022/05/28 07:26:40;;;;;;;13.35;3.15;;;;;;;9.28;98.05;100988.28;5099670;27;20110;-89
2022/05/28 07:29:05;;;;;;;7.85;2.03;;;;;;;9.28;96.80;100983.06;5100165;27;20384;-89
2022/05/28 07:31:30;;;;;;;7.00;2.25;;;;;;;9.30;96.91;100986.56;5099587;27;20316;-89
2022/05/28 07:33:56;;;;;;;11.57;2.38;;;;;;;9.32;96.82;100997.81;5100012;27;20035;-88
2022/05/28 07:36:23;;;;;;;15.18;2.88;;;;;;;9.37;95.65;101008.25;5100038;27;20109;-89
2022/05/28 07:38:49;;;;;;;14.90;2.45;;;;;;;9.30;95.45;101012.63;5100066;27;20019;-88
2022/05/28 07:41:22;;;;;;;9.57;2.05;;;;;;;9.34;96.70;101023.88;5099849;27;20019;-87
2022/05/28 07:43:48;;;;;;;11.27;2.20;;;;;;;9.29;97.02;101023.91;5100050;27;20026;-88
2022/05/28 07:46:19;;;;;;;8.05;1.83;;;;;;;9.25;96.47;101019.59;5100104;27;20114;-88
2022/05/28 07:48:45;;;;;;;6.78;1.95;;;;;;;9.22;96.78;101030.03;5100013;27;20468;-88
2022/05/28 07:51:10;;;;;;;7.82;2.50;;;;;;;9.23;97.55;101032.63;5099524;27;20115;-88
2022/05/28 07:53:36;;;;;;;10.02;1.98;;;;;;;9.23;96.61;101027.44;5099760;27;20027;-88
2022/05/28 07:56:02;;;;;;;8.00;2.28;;;;;;;9.28;97.19;101024.78;5099680;27;20052;-88
2022/05/28 07:58:28;;;;;;;9.15;2.08;;;;;;;9.34;97.63;101019.53;5099494;27;20027;-88
2022/05/28 08:00:54;;;;;;;9.82;2.22;;;;;;;9.42;98.25;101011.66;5099445;27;20533;-87
2022/05/28 08:03:20;;;;;;;7.15;1.80;;;;;;;9.44;97.11;101015.13;5116781;27;20038;-88
2022/05/28 08:05:47;;;;;;;9.73;2.30;;;;;;;9.42;97.13;101043.84;5099673;27;20019;-88
2022/05/28 08:08:14;;;;;;;9.98;2.13;;;;;;;9.42;96.67;101048.16;5099465;27;20023;-88
2022/05/28 08:10:40;;;;;;;9.55;2.08;;;;;;;9.43;96.83;101031.66;5099569;27;20027;-88
2022/05/28 08:13:11;;;;;;;11.27;2.08;;;;;;;9.44;97.23;101036.00;5099741;27;20030;-88
2022/05/28 08:15:38;;;;;;;5.72;2.05;;;;;;;9.45;97.52;101032.53;5099318;27;20526;-88
2022/05/28 08:18:04;;;;;;;8.88;2.50;;;;;;;9.53;97.03;101033.34;5099554;27;20030;-88
2022/05/28 08:23:14;;;;;;;10.17;2.07;;;;;;;9.59;96.43;101025.47;5119314;27;20035;-88
2022/05/28 08:25:40;;;;;;;7.10;2.28;;;;;;;9.61;95.71;101023.72;5099169;27;20023;-88
2022/05/28 08:28:10;;;;;;;7.43;1.90;;;;;;;9.66;96.03;101025.44;5099101;27;20086;-89
2022/05/28 08:30:37;;;;;;;10.60;2.50;;;;;;;9.70;96.38;101028.00;5099313;27;20054;-88
2022/05/28 08:33:03;;;;;;;10.15;2.28;;;;;;;9.76;95.34;101032.28;5099381;27;20502;-88
2022/05/28 08:35:29;;;;;;;10.88;2.20;;;;;;;9.75;95.44;101047.09;5115349;27;20106;-88
2022/05/28 08:37:54;;;;;;;5.65;2.00;;;;;;;9.69;94.00;101046.25;5098912;27;20023;-88
2022/05/28 08:40:23;;;;;;;5.47;1.85;;;;;;;9.63;94.17;101032.38;5098405;27;20488;-92
2022/05/28 08:42:49;;;;;;;8.75;2.03;;;;;;;9.71;94.94;101049.75;5098755;27;20023;-89
2022/05/28 08:45:16;;;;;;;5.68;1.95;;;;;;;9.78;94.54;101067.06;5094188;28;20076;-89
2022/05/28 08:47:44;;;;;;;5.72;1.50;;;;;;;9.76;92.26;101042.72;5078038;28;20027;-88
2022/05/28 08:50:11;;;;;;;3.63;2.20;;;;;;;9.70;92.34;101048.84;5077735;28;20462;-88
2022/05/28 08:52:51;;;;;;;4.18;1.70;;;;;;;9.61;93.92;101049.81;5078056;28;20015;-88
2022/05/28 08:55:24;;;;;;;11.05;1.52;;;;;;;9.59;93.67;101048.06;5094799;28;20030;-89
2022/05/28 08:58:05;;;;;;;4.22;1.65;;;;;;;9.62;93.97;101055.88;5077921;28;20023;-88
2022/05/28 09:00:30;;;;;;;6.13;2.05;;;;;;;9.68;93.49;101039.31;5077573;28;20111;-89
2022/05/28 09:03:02;;;;;;;6.85;1.98;;;;;;;9.70;93.55;101048.00;5094649;28;20528;-89
2022/05/28 09:05:31;;;;;;;7.25;1.80;;;;;;;9.74;91.89;101049.72;5077824;28;20546;-88
2022/05/28 09:08:03;;;;;;;7.53;1.73;;;;;;;9.79;92.90;101029.69;5077763;28;20525;-89
2022/05/28 09:10:33;;;;;;;9.38;2.25;;;;;;;9.87;92.76;101056.59;5077991;28;20027;-88
2022/05/28 09:13:07;;;;;;;9.77;2.38;;;;;;;9.95;93.28;101060.00;5077937;28;20126;-88
2022/05/28 09:15:33;;;;;;;5.07;1.60;;;;;;;9.92;92.47;101073.03;5077812;28;20102;-88
2022/05/28 09:17:58;;;;;;;6.15;1.83;;;;;;;9.90;92.25;101090.47;5077439;28;20123;-89
2022/05/28 09:20:29;;;;;;;9.15;2.22;;;;;;;9.80;94.17;101091.41;5077680;28;20028;-88
2022/05/28 09:22:55;;;;;;;11.82;2.30;;;;;;;9.68;94.98;101096.69;5094319;28;20065;-87
2022/05/28 09:25:22;;;;;;;6.95;1.80;;;;;;;9.57;95.56;101084.59;5077656;28;20031;-87
2022/05/28 09:28:09;;;;;;;8.40;1.80;;;;;;;9.53;96.39;101101.16;5077380;28;20031;-88
2022/05/28 09:30:45;;;;;;;7.85;2.10;;;;;;;9.57;97.04;101099.38;5112129;28;20046;-88
2022/05/28 09:33:45;;;;;;;12.20;2.33;;;;;;;9.61;97.59;101094.13;5077398;28;20023;-88
2022/05/28 09:36:21;;;;;;;8.13;1.98;;;;;;;9.67;98.19;101084.53;5077650;28;20414;-88
2022/05/28 09:38:58;;;;;;;14.48;2.42;;;;;;;9.72;98.22;101093.19;5094382;28;20499;-88
2022/05/28 09:41:24;;;;;;;10.60;2.50;;;;;;;9.75;97.90;101087.97;5094116;28;20031;-88
2022/05/28 09:44:10;;;;;;;11.60;2.40;;;;;;;9.81;98.30;101082.69;5094269;28;20036;-89
2022/05/28 09:46:42;;;;;;;11.70;2.25;;;;;;;9.82;98.90;101090.50;5096136;28;20024;-89
2022/05/28 09:49:14;;;;;;;11.55;2.95;;;;;;;9.86;98.98;101083.53;5081776;28;20024;-87
2022/05/28 09:51:54;;;;;;;13.60;2.95;;;;;;;9.96;98.59;101077.38;5080577;28;20035;-89
2022/05/28 09:54:27;;;;;;;13.70;2.83;;;;;;;10.06;98.58;101072.06;5081388;28;20412;-88
2022/05/28 09:57:02;;;;;;;11.43;2.40;;;;;;;10.11;98.43;101083.34;5081066;28;20015;-87
2022/05/28 09:59:32;;;;;;;7.15;2.08;;;;;;;10.06;97.27;101095.56;5081339;28;20020;-88
2022/05/28 10:02:15;;;;;;;10.48;2.25;;;;;;;10.09;96.75;101082.47;5081016;28;20027;-88
2022/05/28 10:04:57;;;;;;;7.90;2.38;;;;;;;10.16;96.40;101099.84;5081185;28;20035;-88
2022/05/28 10:07:34;;;;;;;7.75;1.80;;;;;;;10.11;95.10;101083.34;5081084;28;20020;-90
2022/05/28 10:10:01;;;;;;;8.13;2.08;;;;;;;10.10;94.83;101089.44;5097827;28;20163;-88
2022/05/28 10:12:31;;;;;;;12.60;2.20;;;;;;;10.09;95.33;101087.69;5080959;28;20405;-87
2022/05/28 10:15:12;;;;;;;9.07;1.85;;;;;;;10.09;95.19;101092.94;5081009;28;20047;-89
2022/05/28 10:17:38;;;;;;;12.20;2.28;;;;;;;10.14;94.26;101091.16;5097724;28;20068;-88
2022/05/28 10:20:14;;;;;;;6.10;1.52;;;;;;;10.17;93.16;101100.72;5080767;28;20114;-88
2022/05/28 10:22:40;;;;;;;5.95;1.75;;;;;;;10.22;90.66;101098.94;5080385;28;20023;-87
2022/05/28 10:25:14;;;;;;;7.60;1.73;;;;;;;10.24;91.48;101107.59;5093058;27;20488;-88
2022/05/28 10:27:49;;;;;;;8.13;1.33;;;;;;;10.29;90.67;101105.81;5101346;27;20030;-90
2022/05/28 10:30:41;;;;;;;9.38;1.92;;;;;;;10.41;90.22;101099.66;5100996;27;20027;-90
2022/05/28 10:33:15;;;;;;;7.43;1.70;;;;;;;10.46;91.09;101083.06;5096744;27;20030;-88
2022/05/28 10:35:41;;;;;;;4.87;1.30;;;;;;;10.51;90.17;101098.69;5118159;27;20030;-88
2022/05/28 10:38:21;;;;;;;10.15;1.58;;;;;;;10.57;89.38;101106.47;5100726;27;20761;-89
2022/05/28 10:40:56;;;;;;;3.85;1.70;;;;;;;10.64;88.98;101102.91;5099799;27;20488;-88
2022/05/28 10:43:24;;;;;;;5.75;1.55;;;;;;;10.68;86.12;101087.22;5100010;27;20474;-86
2022/05/28 10:45:58;;;;;;;6.78;1.73;;;;;;;10.78;85.99;101083.63;5117976;27;20034;-89
2022/05/28 10:49:01;;;;;;;5.35;1.60;;;;;;;10.83;87.53;101095.75;5100116;27;20030;-91
2022/05/28 10:51:51;;;;;;;4.20;1.40;;;;;;;10.91;88.35;101073.91;5117452;27;20028;-88
2022/05/28 10:54:29;;;;;;;8.68;1.83;;;;;;;10.93;86.88;101095.66;5097105;28;20445;-88
2022/05/28 10:57:05;;;;;;;7.78;1.83;;;;;;;10.94;85.23;101082.56;5096672;28;20031;-89
2022/05/28 10:59:50;;;;;;;8.52;2.33;;;;;;;10.94;85.47;101077.34;5079476;28;20050;-89
2022/05/28 11:02:25;;;;;;;;;;;;;;;10.88;84.20;101074.81;5097359;28;20442;-88
2022/05/28 11:04:53;;;;;;;7.75;1.70;;;;;;;10.82;85.82;101086.22;5096819;28;20045;-87
2022/05/28 11:07:26;;;;;;;6.97;1.75;;;;;;;10.78;85.82;101091.47;5096749;28;20477;-87
2022/05/28 11:10:32;;;;;;;6.38;1.90;;;;;;;10.68;86.55;101108.13;5079638;28;20020;-87
2022/05/28 11:13:22;;;;;;;9.73;2.00;;;;;;;10.57;86.37;101111.69;5096404;28;20051;-87
2022/05/28 11:16:19;;;;;;;9.50;1.70;;;;;;;10.58;85.86;101096.88;5096554;28;20257;-86
2022/05/28 11:18:54;;;;;;;5.97;1.13;;;;;;;10.58;83.55;101097.78;5080238;28;20019;-87
2022/05/28 11:21:31;;;;;;;2.85;1.15;;;;;;;10.63;83.65;101110.78;5096761;28;20076;-87
2022/05/28 11:24:15;;;;;;;4.35;0.90;;;;;;;10.72;83.84;101108.06;5096953;28;20028;-86
2022/05/28 11:26:50;;;;;;;6.20;1.23;;;;;;;10.81;84.88;101099.25;5096695;28;20038;-87
2022/05/28 11:29:27;;;;;;;;;;;;;;;10.91;81.99;101100.06;5080573;28;20022;-86
2022/05/28 11:31:59;;;;;;;7.93;2.38;;;;;;;11.07;82.79;101105.94;5096541;28;19926;-87
2022/05/28 11:35:01;;;;;;;4.40;1.17;;;;;;;11.30;83.15;101097.81;5080014;28;20379;-87
2022/05/28 11:37:33;;;;;;;6.00;1.77;;;;;;;11.44;82.15;101100.28;5059164;28;20033;-86
2022/05/28 11:40:03;;;;;;;6.38;1.60;;;;;;;11.61;82.35;101100.88;5096873;28;20045;-89
2022/05/28 11:42:42;;;;;;;6.22;1.83;;;;;;;11.74;82.73;101103.31;5079855;28;20080;-86
2022/05/28 11:45:15;;;;;;;8.23;1.73;;;;;;;11.90;79.23;101125.81;5080002;28;20522;-86